sensor_id;sensor_type;location;lat;lon;timestamp;temperature;humidity
3198;DHT22;1611;49.394;11.136;2022-08-25T00:01:58;17.80;68.70
3198;DHT22;1611;49.394;11.136;2022-08-25T00:04:26;17.80;68.60
3198;DHT22;1611;49.394;11.136;2022-08-25T00:06:53;17.70;69.10
3198;DHT22;1611;49.394;11.136;2022-08-25T00:09:22;17.70;69.50
3198;DHT22;1611;49.394;11.136;2022-08-25T00:11:51;17.70;69.70
3198;DHT22;1611;49.394;11.136;2022-08-25T00:14:21;17.60;69.50
3198;DHT22;1611;49.394;11.136;2022-08-25T00:16:48;17.70;69.60
3198;DHT22;1611;49.394;11.136;2022-08-25T00:19:18;17.70;69.40
3198;DHT22;1611;49.394;11.136;2022-08-25T00:21:46;17.70;69.30
3198;DHT22;1611;49.394;11.136;2022-08-25T00:24:15;17.60;69.50
3198;DHT22;1611;49.394;11.136;2022-08-25T00:26:45;17.60;69.60
3198;DHT22;1611;49.394;11.136;2022-08-25T00:29:14;17.60;69.60
3198;DHT22;1611;49.394;11.136;2022-08-25T00:31:41;17.60;69.90
3198;DHT22;1611;49.394;11.136;2022-08-25T00:34:10;17.60;69.90
3198;DHT22;1611;49.394;11.136;2022-08-25T00:36:37;17.60;69.90
3198;DHT22;1611;49.394;11.136;2022-08-25T00:39:04;17.50;69.80
3198;DHT22;1611;49.394;11.136;2022-08-25T00:41:31;17.60;69.80
3198;DHT22;1611;49.394;11.136;2022-08-25T00:44:01;17.50;69.60
3198;DHT22;1611;49.394;11.136;2022-08-25T00:46:33;17.50;69.80
3198;DHT22;1611;49.394;11.136;2022-08-25T00:49:03;17.50;70.00
3198;DHT22;1611;49.394;11.136;2022-08-25T00:51:36;17.40;70.20
3198;DHT22;1611;49.394;11.136;2022-08-25T00:54:05;17.40;70.20
3198;DHT22;1611;49.394;11.136;2022-08-25T00:56:32;17.40;70.80
3198;DHT22;1611;49.394;11.136;2022-08-25T00:59:01;17.40;70.20
3198;DHT22;1611;49.394;11.136;2022-08-25T01:01:30;17.40;70.20
3198;DHT22;1611;49.394;11.136;2022-08-25T01:03:57;17.30;70.30
3198;DHT22;1611;49.394;11.136;2022-08-25T01:06:24;17.30;70.60
3198;DHT22;1611;49.394;11.136;2022-08-25T01:08:51;17.30;71.10
3198;DHT22;1611;49.394;11.136;2022-08-25T01:11:19;17.30;71.20
3198;DHT22;1611;49.394;11.136;2022-08-25T01:13:50;17.30;71.10
3198;DHT22;1611;49.394;11.136;2022-08-25T01:16:18;17.30;71.10
3198;DHT22;1611;49.394;11.136;2022-08-25T01:18:49;17.20;71.00
3198;DHT22;1611;49.394;11.136;2022-08-25T01:21:20;17.20;71.10
3198;DHT22;1611;49.394;11.136;2022-08-25T01:23:48;17.20;71.30
3198;DHT22;1611;49.394;11.136;2022-08-25T01:26:17;17.20;71.60
3198;DHT22;1611;49.394;11.136;2022-08-25T01:28:46;17.10;71.90
3198;DHT22;1611;49.394;11.136;2022-08-25T01:31:31;17.10;72.20
3198;DHT22;1611;49.394;11.136;2022-08-25T01:33:58;17.10;72.80
3198;DHT22;1611;49.394;11.136;2022-08-25T01:36:27;17.10;72.90
3198;DHT22;1611;49.394;11.136;2022-08-25T01:38:54;17.00;72.60
3198;DHT22;1611;49.394;11.136;2022-08-25T01:41:25;17.00;72.90
3198;DHT22;1611;49.394;11.136;2022-08-25T01:43:56;17.00;72.90
3198;DHT22;1611;49.394;11.136;2022-08-25T01:46:24;17.00;73.10
3198;DHT22;1611;49.394;11.136;2022-08-25T01:48:50;17.00;73.00
3198;DHT22;1611;49.394;11.136;2022-08-25T01:51:19;17.00;72.50
3198;DHT22;1611;49.394;11.136;2022-08-25T01:53:48;17.00;72.00
3198;DHT22;1611;49.394;11.136;2022-08-25T01:56:16;17.00;71.60
3198;DHT22;1611;49.394;11.136;2022-08-25T01:58:45;17.00;71.30
3198;DHT22;1611;49.394;11.136;2022-08-25T02:01:16;17.00;71.30
3198;DHT22;1611;49.394;11.136;2022-08-25T02:03:45;16.90;70.70
3198;DHT22;1611;49.394;11.136;2022-08-25T02:06:14;16.90;71.20
3198;DHT22;1611;49.394;11.136;2022-08-25T02:08:42;16.90;71.50
3198;DHT22;1611;49.394;11.136;2022-08-25T02:11:11;16.90;72.10
3198;DHT22;1611;49.394;11.136;2022-08-25T02:13:38;16.90;72.00
3198;DHT22;1611;49.394;11.136;2022-08-25T02:16:06;16.90;71.80
3198;DHT22;1611;49.394;11.136;2022-08-25T02:18:34;16.80;71.60
3198;DHT22;1611;49.394;11.136;2022-08-25T02:21:01;16.80;71.70
3198;DHT22;1611;49.394;11.136;2022-08-25T02:23:28;16.80;71.60
3198;DHT22;1611;49.394;11.136;2022-08-25T02:25:54;16.80;71.40
3198;DHT22;1611;49.394;11.136;2022-08-25T02:28:24;16.70;71.40
3198;DHT22;1611;49.394;11.136;2022-08-25T02:30:51;16.80;71.30
3198;DHT22;1611;49.394;11.136;2022-08-25T02:33:18;16.80;71.50
3198;DHT22;1611;49.394;11.136;2022-08-25T02:35:45;16.80;71.50
3198;DHT22;1611;49.394;11.136;2022-08-25T02:38:12;16.80;71.50
3198;DHT22;1611;49.394;11.136;2022-08-25T02:40:39;16.70;71.60
3198;DHT22;1611;49.394;11.136;2022-08-25T02:43:06;16.70;71.40
3198;DHT22;1611;49.394;11.136;2022-08-25T02:45:34;16.70;71.30
3198;DHT22;1611;49.394;11.136;2022-08-25T02:48:02;16.70;71.40
3198;DHT22;1611;49.394;11.136;2022-08-25T02:50:29;16.70;71.10
3198;DHT22;1611;49.394;11.136;2022-08-25T02:52:55;16.70;71.40
3198;DHT22;1611;49.394;11.136;2022-08-25T02:55:22;16.70;71.20
3198;DHT22;1611;49.394;11.136;2022-08-25T02:57:49;16.60;70.80
3198;DHT22;1611;49.394;11.136;2022-08-25T03:00:17;16.60;70.90
3198;DHT22;1611;49.394;11.136;2022-08-25T03:02:45;16.60;70.80
3198;DHT22;1611;49.394;11.136;2022-08-25T03:05:13;16.60;71.20
3198;DHT22;1611;49.394;11.136;2022-08-25T03:07:40;16.60;71.90
3198;DHT22;1611;49.394;11.136;2022-08-25T03:10:10;16.50;71.40
3198;DHT22;1611;49.394;11.136;2022-08-25T03:12:38;16.60;71.60
3198;DHT22;1611;49.394;11.136;2022-08-25T03:15:07;16.50;71.80
3198;DHT22;1611;49.394;11.136;2022-08-25T03:17:33;16.50;72.00
3198;DHT22;1611;49.394;11.136;2022-08-25T03:20:03;16.50;72.10
3198;DHT22;1611;49.394;11.136;2022-08-25T03:22:30;16.50;71.80
3198;DHT22;1611;49.394;11.136;2022-08-25T03:24:57;16.50;72.00
3198;DHT22;1611;49.394;11.136;2022-08-25T03:27:44;16.40;72.30
3198;DHT22;1611;49.394;11.136;2022-08-25T03:30:11;16.40;72.50
3198;DHT22;1611;49.394;11.136;2022-08-25T03:32:38;16.40;72.50
3198;DHT22;1611;49.394;11.136;2022-08-25T03:35:06;16.40;72.30
3198;DHT22;1611;49.394;11.136;2022-08-25T03:37:34;16.40;71.80
3198;DHT22;1611;49.394;11.136;2022-08-25T03:40:01;16.40;71.90
3198;DHT22;1611;49.394;11.136;2022-08-25T03:42:28;16.40;71.90
3198;DHT22;1611;49.394;11.136;2022-08-25T03:44:55;16.40;72.00
3198;DHT22;1611;49.394;11.136;2022-08-25T03:47:22;16.40;72.10
3198;DHT22;1611;49.394;11.136;2022-08-25T03:49:50;16.40;72.10
3198;DHT22;1611;49.394;11.136;2022-08-25T03:52:18;16.40;72.20
3198;DHT22;1611;49.394;11.136;2022-08-25T03:54:45;16.40;71.90
3198;DHT22;1611;49.394;11.136;2022-08-25T03:57:12;16.40;71.90
3198;DHT22;1611;49.394;11.136;2022-08-25T03:59:39;16.30;71.70
3198;DHT22;1611;49.394;11.136;2022-08-25T04:02:06;16.30;71.60
3198;DHT22;1611;49.394;11.136;2022-08-25T04:04:33;16.30;71.60
3198;DHT22;1611;49.394;11.136;2022-08-25T04:07:00;16.20;71.50
3198;DHT22;1611;49.394;11.136;2022-08-25T04:09:28;16.20;71.80
3198;DHT22;1611;49.394;11.136;2022-08-25T04:11:55;16.10;72.40
3198;DHT22;1611;49.394;11.136;2022-08-25T04:14:22;16.10;72.90
3198;DHT22;1611;49.394;11.136;2022-08-25T04:16:50;16.10;73.50
3198;DHT22;1611;49.394;11.136;2022-08-25T04:19:18;16.10;74.20
3198;DHT22;1611;49.394;11.136;2022-08-25T04:21:44;16.10;74.30
3198;DHT22;1611;49.394;11.136;2022-08-25T04:24:12;16.10;73.90
3198;DHT22;1611;49.394;11.136;2022-08-25T04:26:42;16.10;73.80
3198;DHT22;1611;49.394;11.136;2022-08-25T04:29:11;16.20;73.70
3198;DHT22;1611;49.394;11.136;2022-08-25T04:31:39;16.20;73.50
3198;DHT22;1611;49.394;11.136;2022-08-25T04:34:07;16.20;73.40
3198;DHT22;1611;49.394;11.136;2022-08-25T04:36:35;16.20;73.70
3198;DHT22;1611;49.394;11.136;2022-08-25T04:39:02;16.20;73.60
3198;DHT22;1611;49.394;11.136;2022-08-25T04:41:29;16.20;73.70
3198;DHT22;1611;49.394;11.136;2022-08-25T04:43:59;16.20;74.20
3198;DHT22;1611;49.394;11.136;2022-08-25T04:46:28;16.20;73.70
3198;DHT22;1611;49.394;11.136;2022-08-25T04:48:57;16.20;73.90
3198;DHT22;1611;49.394;11.136;2022-08-25T04:51:27;16.20;73.70
3198;DHT22;1611;49.394;11.136;2022-08-25T04:53:54;16.30;73.60
3198;DHT22;1611;49.394;11.136;2022-08-25T04:56:23;16.30;73.40
3198;DHT22;1611;49.394;11.136;2022-08-25T04:58:50;16.30;73.30
3198;DHT22;1611;49.394;11.136;2022-08-25T05:01:20;16.40;73.60
3198;DHT22;1611;49.394;11.136;2022-08-25T05:03:52;16.40;73.70
3198;DHT22;1611;49.394;11.136;2022-08-25T05:06:19;16.50;73.50
3198;DHT22;1611;49.394;11.136;2022-08-25T05:08:45;16.50;73.30
3198;DHT22;1611;49.394;11.136;2022-08-25T05:11:14;16.50;73.20
3198;DHT22;1611;49.394;11.136;2022-08-25T05:13:42;16.60;72.70
3198;DHT22;1611;49.394;11.136;2022-08-25T05:16:09;16.70;72.00
3198;DHT22;1611;49.394;11.136;2022-08-25T05:18:37;16.60;71.00
3198;DHT22;1611;49.394;11.136;2022-08-25T05:21:06;16.60;71.10
3198;DHT22;1611;49.394;11.136;2022-08-25T05:23:34;16.60;71.20
3198;DHT22;1611;49.394;11.136;2022-08-25T05:26:03;16.70;71.50
3198;DHT22;1611;49.394;11.136;2022-08-25T05:28:31;16.60;71.60
3198;DHT22;1611;49.394;11.136;2022-08-25T05:30:59;16.70;71.50
3198;DHT22;1611;49.394;11.136;2022-08-25T05:33:26;16.70;71.30
3198;DHT22;1611;49.394;11.136;2022-08-25T05:35:55;16.70;71.10
3198;DHT22;1611;49.394;11.136;2022-08-25T05:38:22;16.80;71.20
3198;DHT22;1611;49.394;11.136;2022-08-25T05:40:51;16.80;71.30
3198;DHT22;1611;49.394;11.136;2022-08-25T05:43:18;16.90;71.00
3198;DHT22;1611;49.394;11.136;2022-08-25T05:45:45;16.90;70.80
3198;DHT22;1611;49.394;11.136;2022-08-25T05:48:12;16.90;70.70
3198;DHT22;1611;49.394;11.136;2022-08-25T05:50:38;17.00;70.90
3198;DHT22;1611;49.394;11.136;2022-08-25T05:53:06;17.10;70.60
3198;DHT22;1611;49.394;11.136;2022-08-25T05:55:33;17.20;70.70
3198;DHT22;1611;49.394;11.136;2022-08-25T05:58:00;17.20;70.40
3198;DHT22;1611;49.394;11.136;2022-08-25T06:00:27;17.30;70.20
3198;DHT22;1611;49.394;11.136;2022-08-25T06:02:53;17.40;69.90
3198;DHT22;1611;49.394;11.136;2022-08-25T06:05:20;17.50;69.70
3198;DHT22;1611;49.394;11.136;2022-08-25T06:07:50;17.70;69.40
3198;DHT22;1611;49.394;11.136;2022-08-25T06:10:18;17.90;69.20
3198;DHT22;1611;49.394;11.136;2022-08-25T06:12:46;18.00;68.90
3198;DHT22;1611;49.394;11.136;2022-08-25T06:15:15;18.20;68.50
3198;DHT22;1611;49.394;11.136;2022-08-25T06:17:42;18.30;68.00
3198;DHT22;1611;49.394;11.136;2022-08-25T06:20:11;18.40;67.60
3198;DHT22;1611;49.394;11.136;2022-08-25T06:22:38;18.60;67.30
3198;DHT22;1611;49.394;11.136;2022-08-25T06:25:06;18.60;66.60
3198;DHT22;1611;49.394;11.136;2022-08-25T06:27:35;18.80;66.60
3198;DHT22;1611;49.394;11.136;2022-08-25T06:30:03;18.90;67.10
3198;DHT22;1611;49.394;11.136;2022-08-25T06:32:30;19.00;66.40
3198;DHT22;1611;49.394;11.136;2022-08-25T06:34:57;19.00;66.30
3198;DHT22;1611;49.394;11.136;2022-08-25T06:37:24;19.00;66.50
3198;DHT22;1611;49.394;11.136;2022-08-25T06:39:51;19.00;66.70
3198;DHT22;1611;49.394;11.136;2022-08-25T06:42:17;19.00;67.00
3198;DHT22;1611;49.394;11.136;2022-08-25T06:44:46;19.00;67.40
3198;DHT22;1611;49.394;11.136;2022-08-25T06:47:12;19.00;67.60
3198;DHT22;1611;49.394;11.136;2022-08-25T06:49:40;19.00;67.80
3198;DHT22;1611;49.394;11.136;2022-08-25T06:52:08;19.00;68.20
3198;DHT22;1611;49.394;11.136;2022-08-25T06:54:35;19.00;68.40
3198;DHT22;1611;49.394;11.136;2022-08-25T06:57:02;19.10;68.40
3198;DHT22;1611;49.394;11.136;2022-08-25T06:59:30;19.20;68.20
3198;DHT22;1611;49.394;11.136;2022-08-25T07:01:59;19.20;68.30
3198;DHT22;1611;49.394;11.136;2022-08-25T07:04:27;19.30;68.60
3198;DHT22;1611;49.394;11.136;2022-08-25T07:06:53;19.30;68.50
3198;DHT22;1611;49.394;11.136;2022-08-25T07:09:20;19.40;68.50
3198;DHT22;1611;49.394;11.136;2022-08-25T07:11:47;19.40;68.70
3198;DHT22;1611;49.394;11.136;2022-08-25T07:14:15;19.50;69.00
3198;DHT22;1611;49.394;11.136;2022-08-25T07:16:42;19.70;68.80
3198;DHT22;1611;49.394;11.136;2022-08-25T07:19:11;20.00;68.10
3198;DHT22;1611;49.394;11.136;2022-08-25T07:21:39;20.20;65.90
3198;DHT22;1611;49.394;11.136;2022-08-25T07:24:08;20.40;64.70
3198;DHT22;1611;49.394;11.136;2022-08-25T07:26:35;20.70;64.00
3198;DHT22;1611;49.394;11.136;2022-08-25T07:29:05;21.00;62.10
3198;DHT22;1611;49.394;11.136;2022-08-25T07:31:32;21.20;61.20
3198;DHT22;1611;49.394;11.136;2022-08-25T07:33:59;21.40;59.80
3198;DHT22;1611;49.394;11.136;2022-08-25T07:36:44;21.60;59.10
3198;DHT22;1611;49.394;11.136;2022-08-25T07:39:11;21.80;58.80
3198;DHT22;1611;49.394;11.136;2022-08-25T07:41:40;22.00;57.30
3198;DHT22;1611;49.394;11.136;2022-08-25T07:44:09;22.20;56.40
3198;DHT22;1611;49.394;11.136;2022-08-25T07:46:36;22.20;56.30
3198;DHT22;1611;49.394;11.136;2022-08-25T07:49:03;22.40;55.40
3198;DHT22;1611;49.394;11.136;2022-08-25T07:51:30;22.60;55.00
3198;DHT22;1611;49.394;11.136;2022-08-25T07:53:58;22.70;54.10
3198;DHT22;1611;49.394;11.136;2022-08-25T07:56:25;22.80;54.00
3198;DHT22;1611;49.394;11.136;2022-08-25T07:58:51;22.90;53.20
3198;DHT22;1611;49.394;11.136;2022-08-25T08:01:20;23.00;53.00
3198;DHT22;1611;49.394;11.136;2022-08-25T08:03:47;23.10;52.50
3198;DHT22;1611;49.394;11.136;2022-08-25T08:06:16;23.10;53.00
3198;DHT22;1611;49.394;11.136;2022-08-25T08:08:44;23.10;52.00
3198;DHT22;1611;49.394;11.136;2022-08-25T08:11:16;23.00;51.80
3198;DHT22;1611;49.394;11.136;2022-08-25T08:13:44;23.00;51.90
3198;DHT22;1611;49.394;11.136;2022-08-25T08:16:12;23.20;50.80
3198;DHT22;1611;49.394;11.136;2022-08-25T08:18:39;23.30;51.40
3198;DHT22;1611;49.394;11.136;2022-08-25T08:21:10;23.50;51.60
3198;DHT22;1611;49.394;11.136;2022-08-25T08:23:37;23.50;50.10
3198;DHT22;1611;49.394;11.136;2022-08-25T08:26:04;23.60;50.20
3198;DHT22;1611;49.394;11.136;2022-08-25T08:28:32;23.70;49.90
3198;DHT22;1611;49.394;11.136;2022-08-25T08:30:59;23.90;48.90
3198;DHT22;1611;49.394;11.136;2022-08-25T08:33:26;24.00;48.30
3198;DHT22;1611;49.394;11.136;2022-08-25T08:35:57;24.10;48.30
3198;DHT22;1611;49.394;11.136;2022-08-25T08:38:24;24.20;48.00
3198;DHT22;1611;49.394;11.136;2022-08-25T08:40:59;24.50;48.00
3198;DHT22;1611;49.394;11.136;2022-08-25T08:43:48;24.60;46.70
3198;DHT22;1611;49.394;11.136;2022-08-25T08:46:18;24.80;45.80
3198;DHT22;1611;49.394;11.136;2022-08-25T08:48:57;24.80;45.80
3198;DHT22;1611;49.394;11.136;2022-08-25T08:51:29;24.80;45.30
3198;DHT22;1611;49.394;11.136;2022-08-25T08:54:03;24.70;46.20
3198;DHT22;1611;49.394;11.136;2022-08-25T08:56:35;24.80;46.50
3198;DHT22;1611;49.394;11.136;2022-08-25T08:59:08;24.90;44.70
3198;DHT22;1611;49.394;11.136;2022-08-25T09:01:43;24.80;44.70
3198;DHT22;1611;49.394;11.136;2022-08-25T09:04:17;24.90;45.10
3198;DHT22;1611;49.394;11.136;2022-08-25T09:06:47;25.00;44.40
3198;DHT22;1611;49.394;11.136;2022-08-25T09:09:19;25.20;44.20
3198;DHT22;1611;49.394;11.136;2022-08-25T09:11:56;25.30;43.40
3198;DHT22;1611;49.394;11.136;2022-08-25T09:14:36;25.50;42.00
3198;DHT22;1611;49.394;11.136;2022-08-25T09:17:09;25.60;40.20
3198;DHT22;1611;49.394;11.136;2022-08-25T09:22:43;26.00;36.90
3198;DHT22;1611;49.394;11.136;2022-08-25T09:25:19;26.40;36.50
3198;DHT22;1611;49.394;11.136;2022-08-25T09:27:55;26.50;34.80
3198;DHT22;1611;49.394;11.136;2022-08-25T09:30:42;26.50;34.90
3198;DHT22;1611;49.394;11.136;2022-08-25T09:33:11;26.60;35.00
3198;DHT22;1611;49.394;11.136;2022-08-25T09:35:40;26.60;35.10
3198;DHT22;1611;49.394;11.136;2022-08-25T09:38:10;26.90;35.40
3198;DHT22;1611;49.394;11.136;2022-08-25T09:40:38;27.20;34.60
3198;DHT22;1611;49.394;11.136;2022-08-25T09:43:18;27.40;33.60
3198;DHT22;1611;49.394;11.136;2022-08-25T09:45:49;27.40;32.40
3198;DHT22;1611;49.394;11.136;2022-08-25T09:48:23;27.50;33.00
3198;DHT22;1611;49.394;11.136;2022-08-25T09:50:51;27.80;33.30
3198;DHT22;1611;49.394;11.136;2022-08-25T09:53:19;28.10;32.00
3198;DHT22;1611;49.394;11.136;2022-08-25T09:55:55;28.30;31.20
3198;DHT22;1611;49.394;11.136;2022-08-25T09:58:24;28.30;31.40
3198;DHT22;1611;49.394;11.136;2022-08-25T10:01:13;28.10;31.50
3198;DHT22;1611;49.394;11.136;2022-08-25T10:03:58;28.10;31.60
3198;DHT22;1611;49.394;11.136;2022-08-25T10:06:28;28.40;30.90
3198;DHT22;1611;49.394;11.136;2022-08-25T10:08:58;28.50;30.50
3198;DHT22;1611;49.394;11.136;2022-08-25T10:11:33;28.80;29.70
3198;DHT22;1611;49.394;11.136;2022-08-25T10:14:03;28.70;29.20
3198;DHT22;1611;49.394;11.136;2022-08-25T10:16:31;28.50;29.90
3198;DHT22;1611;49.394;11.136;2022-08-25T10:19:04;28.40;30.10
3198;DHT22;1611;49.394;11.136;2022-08-25T10:21:32;28.30;29.70
3198;DHT22;1611;49.394;11.136;2022-08-25T10:24:00;28.30;30.00
3198;DHT22;1611;49.394;11.136;2022-08-25T10:26:36;28.40;30.10
3198;DHT22;1611;49.394;11.136;2022-08-25T10:29:14;28.40;29.50
3198;DHT22;1611;49.394;11.136;2022-08-25T10:31:47;28.30;29.60
3198;DHT22;1611;49.394;11.136;2022-08-25T10:34:27;28.30;30.20
3198;DHT22;1611;49.394;11.136;2022-08-25T10:37:04;28.20;30.40
3198;DHT22;1611;49.394;11.136;2022-08-25T10:39:38;28.20;30.30
3198;DHT22;1611;49.394;11.136;2022-08-25T10:42:26;28.20;30.50
3198;DHT22;1611;49.394;11.136;2022-08-25T10:45:20;28.60;27.80
3198;DHT22;1611;49.394;11.136;2022-08-25T10:48:24;29.40;27.80
3198;DHT22;1611;49.394;11.136;2022-08-25T10:50:55;29.90;25.80
3198;DHT22;1611;49.394;11.136;2022-08-25T10:53:27;30.70;24.70
3198;DHT22;1611;49.394;11.136;2022-08-25T10:56:07;31.80;22.50
3198;DHT22;1611;49.394;11.136;2022-08-25T10:58:53;32.10;21.50
3198;DHT22;1611;49.394;11.136;2022-08-25T11:01:32;32.00;21.30
3198;DHT22;1611;49.394;11.136;2022-08-25T11:04:07;32.30;21.60
3198;DHT22;1611;49.394;11.136;2022-08-25T11:06:39;32.80;20.10
3198;DHT22;1611;49.394;11.136;2022-08-25T11:09:10;33.00;19.70
3198;DHT22;1611;49.394;11.136;2022-08-25T11:11:43;32.90;20.60
3198;DHT22;1611;49.394;11.136;2022-08-25T11:14:18;32.80;19.00
3198;DHT22;1611;49.394;11.136;2022-08-25T11:16:50;32.40;20.10
3198;DHT22;1611;49.394;11.136;2022-08-25T11:19:23;32.80;19.20
3198;DHT22;1611;49.394;11.136;2022-08-25T11:21:58;33.20;19.30
3198;DHT22;1611;49.394;11.136;2022-08-25T11:24:41;33.70;18.30
3198;DHT22;1611;49.394;11.136;2022-08-25T11:27:15;33.90;18.00
3198;DHT22;1611;49.394;11.136;2022-08-25T11:29:45;34.40;17.40
3198;DHT22;1611;49.394;11.136;2022-08-25T11:32:17;34.00;17.50
3198;DHT22;1611;49.394;11.136;2022-08-25T11:34:46;33.40;18.60
3198;DHT22;1611;49.394;11.136;2022-08-25T11:37:19;32.90;18.80
3198;DHT22;1611;49.394;11.136;2022-08-25T11:40:07;32.20;20.00
3198;DHT22;1611;49.394;11.136;2022-08-25T11:42:46;32.80;19.90
3198;DHT22;1611;49.394;11.136;2022-08-25T11:45:24;34.70;17.40
3198;DHT22;1611;49.394;11.136;2022-08-25T11:48:08;36.40;14.50
3198;DHT22;1611;49.394;11.136;2022-08-25T11:53:37;36.50;14.40
3198;DHT22;1611;49.394;11.136;2022-08-25T11:56:07;35.40;15.50
3198;DHT22;1611;49.394;11.136;2022-08-25T11:58:52;34.10;17.10
3198;DHT22;1611;49.394;11.136;2022-08-25T12:04:37;32.70;18.90
3198;DHT22;1611;49.394;11.136;2022-08-25T12:13:44;33.50;18.70
3198;DHT22;1611;49.394;11.136;2022-08-25T12:16:35;33.80;17.20
3198;DHT22;1611;49.394;11.136;2022-08-25T12:19:28;33.80;16.90
3198;DHT22;1611;49.394;11.136;2022-08-25T12:21:57;35.10;16.30
3198;DHT22;1611;49.394;11.136;2022-08-25T12:24:46;36.70;14.10
3198;DHT22;1611;49.394;11.136;2022-08-25T12:27:22;38.00;12.10
3198;DHT22;1611;49.394;11.136;2022-08-25T12:29:56;38.80;10.60
3198;DHT22;1611;49.394;11.136;2022-08-25T12:32:45;39.10;10.50
3198;DHT22;1611;49.394;11.136;2022-08-25T12:35:25;37.80;11.30
3198;DHT22;1611;49.394;11.136;2022-08-25T12:37:55;36.80;12.80
3198;DHT22;1611;49.394;11.136;2022-08-25T12:40:25;36.10;14.20
3198;DHT22;1611;49.394;11.136;2022-08-25T12:43:02;35.20;14.80
3198;DHT22;1611;49.394;11.136;2022-08-25T12:45:41;34.80;14.90
3198;DHT22;1611;49.394;11.136;2022-08-25T12:48:41;34.00;15.80
3198;DHT22;1611;49.394;11.136;2022-08-25T12:51:15;33.30;17.00
3198;DHT22;1611;49.394;11.136;2022-08-25T12:53:45;33.30;17.20
3198;DHT22;1611;49.394;11.136;2022-08-25T12:56:26;34.60;15.80
3198;DHT22;1611;49.394;11.136;2022-08-25T12:59:00;36.10;14.30
3198;DHT22;1611;49.394;11.136;2022-08-25T13:01:38;37.30;13.50
3198;DHT22;1611;49.394;11.136;2022-08-25T13:04:26;37.70;13.20
3198;DHT22;1611;49.394;11.136;2022-08-25T13:07:07;37.50;13.10
3198;DHT22;1611;49.394;11.136;2022-08-25T13:10:02;37.00;13.80
3198;DHT22;1611;49.394;11.136;2022-08-25T13:12:38;37.00;14.30
3198;DHT22;1611;49.394;11.136;2022-08-25T13:15:11;36.80;13.40
3198;DHT22;1611;49.394;11.136;2022-08-25T13:17:40;37.70;12.90
3198;DHT22;1611;49.394;11.136;2022-08-25T13:20:15;38.90;11.50
3198;DHT22;1611;49.394;11.136;2022-08-25T13:22:47;40.10;9.90
3198;DHT22;1611;49.394;11.136;2022-08-25T13:25:17;38.60;10.60
3198;DHT22;1611;49.394;11.136;2022-08-25T13:27:48;37.60;12.00
3198;DHT22;1611;49.394;11.136;2022-08-25T13:30:23;36.50;14.00
3198;DHT22;1611;49.394;11.136;2022-08-25T13:32:52;36.40;13.20
3198;DHT22;1611;49.394;11.136;2022-08-25T13:35:21;36.90;12.80
3198;DHT22;1611;49.394;11.136;2022-08-25T13:37:48;38.50;11.70
3198;DHT22;1611;49.394;11.136;2022-08-25T13:40:21;39.30;11.00
3198;DHT22;1611;49.394;11.136;2022-08-25T13:42:49;39.10;10.80
3198;DHT22;1611;49.394;11.136;2022-08-25T13:45:20;38.30;10.90
3198;DHT22;1611;49.394;11.136;2022-08-25T13:47:47;37.60;11.80
3198;DHT22;1611;49.394;11.136;2022-08-25T13:50:20;36.40;12.70
3198;DHT22;1611;49.394;11.136;2022-08-25T13:52:50;35.30;14.00
3198;DHT22;1611;49.394;11.136;2022-08-25T13:55:20;34.30;15.50
3198;DHT22;1611;49.394;11.136;2022-08-25T13:57:47;33.90;16.10
3198;DHT22;1611;49.394;11.136;2022-08-25T14:00:25;33.50;17.20
3198;DHT22;1611;49.394;11.136;2022-08-25T14:02:53;33.20;17.90
3198;DHT22;1611;49.394;11.136;2022-08-25T14:05:34;32.90;18.40
3198;DHT22;1611;49.394;11.136;2022-08-25T14:08:03;32.20;18.90
3198;DHT22;1611;49.394;11.136;2022-08-25T14:10:37;31.60;19.40
3198;DHT22;1611;49.394;11.136;2022-08-25T14:13:14;31.20;20.60
3198;DHT22;1611;49.394;11.136;2022-08-25T14:15:42;31.10;20.70
3198;DHT22;1611;49.394;11.136;2022-08-25T14:18:13;30.70;21.30
3198;DHT22;1611;49.394;11.136;2022-08-25T14:20:47;30.90;20.40
3198;DHT22;1611;49.394;11.136;2022-08-25T14:23:18;31.50;20.40
3198;DHT22;1611;49.394;11.136;2022-08-25T14:25:48;32.10;19.40
3198;DHT22;1611;49.394;11.136;2022-08-25T14:28:16;32.20;19.30
3198;DHT22;1611;49.394;11.136;2022-08-25T14:30:46;32.10;19.60
3198;DHT22;1611;49.394;11.136;2022-08-25T14:33:14;31.80;19.50
3198;DHT22;1611;49.394;11.136;2022-08-25T14:35:45;31.40;20.00
3198;DHT22;1611;49.394;11.136;2022-08-25T14:38:14;31.30;19.80
3198;DHT22;1611;49.394;11.136;2022-08-25T14:40:41;31.10;20.40
3198;DHT22;1611;49.394;11.136;2022-08-25T14:43:09;31.00;20.80
3198;DHT22;1611;49.394;11.136;2022-08-25T14:45:37;30.80;20.10
3198;DHT22;1611;49.394;11.136;2022-08-25T14:48:07;30.70;20.90
3198;DHT22;1611;49.394;11.136;2022-08-25T14:50:35;30.70;21.30
3198;DHT22;1611;49.394;11.136;2022-08-25T14:53:02;30.60;19.80
3198;DHT22;1611;49.394;11.136;2022-08-25T14:55:30;30.80;19.80
3198;DHT22;1611;49.394;11.136;2022-08-25T14:57:58;31.30;19.60
3198;DHT22;1611;49.394;11.136;2022-08-25T15:00:25;31.70;18.30
3198;DHT22;1611;49.394;11.136;2022-08-25T15:02:52;32.90;18.00
3198;DHT22;1611;49.394;11.136;2022-08-25T15:05:22;34.80;15.20
3198;DHT22;1611;49.394;11.136;2022-08-25T15:07:52;36.20;13.20
3198;DHT22;1611;49.394;11.136;2022-08-25T15:10:38;36.60;12.40
3198;DHT22;1611;49.394;11.136;2022-08-25T15:13:05;36.50;12.10
3198;DHT22;1611;49.394;11.136;2022-08-25T15:15:36;35.70;13.50
3198;DHT22;1611;49.394;11.136;2022-08-25T15:18:03;34.90;13.60
3198;DHT22;1611;49.394;11.136;2022-08-25T15:20:30;34.00;14.70
3198;DHT22;1611;49.394;11.136;2022-08-25T15:22:57;33.40;15.50
3198;DHT22;1611;49.394;11.136;2022-08-25T15:25:23;33.30;16.10
3198;DHT22;1611;49.394;11.136;2022-08-25T15:27:52;32.90;15.40
3198;DHT22;1611;49.394;11.136;2022-08-25T15:30:19;32.50;16.30
3198;DHT22;1611;49.394;11.136;2022-08-25T15:32:46;32.20;18.10
3198;DHT22;1611;49.394;11.136;2022-08-25T15:35:12;31.60;19.30
3198;DHT22;1611;49.394;11.136;2022-08-25T15:37:39;31.10;19.80
3198;DHT22;1611;49.394;11.136;2022-08-25T15:40:07;30.90;20.20
3198;DHT22;1611;49.394;11.136;2022-08-25T15:42:35;30.60;20.20
3198;DHT22;1611;49.394;11.136;2022-08-25T15:45:04;30.30;21.60
3198;DHT22;1611;49.394;11.136;2022-08-25T15:47:31;30.10;21.60
3198;DHT22;1611;49.394;11.136;2022-08-25T15:50:02;29.80;21.60
3198;DHT22;1611;49.394;11.136;2022-08-25T15:52:31;29.70;21.80
3198;DHT22;1611;49.394;11.136;2022-08-25T15:54:58;29.50;22.40
3198;DHT22;1611;49.394;11.136;2022-08-25T15:57:25;29.40;22.60
3198;DHT22;1611;49.394;11.136;2022-08-25T15:59:52;29.30;24.00
3198;DHT22;1611;49.394;11.136;2022-08-25T16:02:21;29.10;23.80
3198;DHT22;1611;49.394;11.136;2022-08-25T16:04:47;29.10;23.80
3198;DHT22;1611;49.394;11.136;2022-08-25T16:07:15;29.00;23.80
3198;DHT22;1611;49.394;11.136;2022-08-25T16:09:42;29.00;24.00
3198;DHT22;1611;49.394;11.136;2022-08-25T16:12:09;28.90;23.90
3198;DHT22;1611;49.394;11.136;2022-08-25T16:14:37;28.90;23.80
3198;DHT22;1611;49.394;11.136;2022-08-25T16:17:04;28.70;24.20
3198;DHT22;1611;49.394;11.136;2022-08-25T16:19:33;28.70;24.50
3198;DHT22;1611;49.394;11.136;2022-08-25T16:22:00;28.60;24.40